Time;durP1;ratioP1;P1;durP2;ratioP2;P2;SDS_P1;SDS_P2;PMS_P1;PMS_P2;Temp;Humidity;BMP_temperature;BMP_pressure;BME280_temperature;BME280_humidity;BME280_pressure;Samples;Min_cycle;Max_cycle;Signal;HPM_P1;HPM_P2
2023/10/05 00:03:44;;;;;;;6.75;1.90;;;12.90;99.90;;;;;;5062948;28;20091;-66
2023/10/05 00:06:17;;;;;;;10.23;1.73;;;12.90;99.90;;;;;;5058352;28;20041;-66
2023/10/05 00:08:49;;;;;;;3.75;1.55;;;12.90;99.90;;;;;;5075886;28;20036;-66
2023/10/05 00:11:36;;;;;;;5.00;1.40;;;12.80;99.90;;;;;;5060155;28;20048;-66
2023/10/05 00:14:10;;;;;;;8.90;1.77;;;12.90;99.90;;;;;;5063576;28;20032;-66
2023/10/05 00:16:36;;;;;;;9.55;1.88;;;12.80;99.90;;;;;;5063626;28;20110;-66
2023/10/05 00:19:10;;;;;;;4.40;1.60;;;12.80;99.90;;;;;;5055177;28;20481;-66
2023/10/05 00:21:56;;;;;;;4.47;1.38;;;12.80;99.90;;;;;;5056293;28;20045;-66
2023/10/05 00:24:32;;;;;;;6.85;1.55;;;12.80;99.90;;;;;;5043850;28;20191;-66
2023/10/05 00:26:58;;;;;;;6.32;1.80;;;12.80;99.90;;;;;;5061587;28;20048;-66
2023/10/05 00:29:28;;;;;;;5.60;1.88;;;12.90;99.90;;;;;;5055942;28;20106;-66
2023/10/05 00:31:58;;;;;;;2.33;1.50;;;12.90;99.90;;;;;;5071571;28;20048;-67
2023/10/05 00:34:24;;;;;;;6.85;1.92;;;12.90;99.90;;;;;;5059965;28;20154;-67
2023/10/05 00:36:52;;;;;;;5.93;1.88;;;12.90;99.90;;;;;;5052643;28;20135;-66
2023/10/05 00:39:21;;;;;;;9.25;1.80;;;12.90;99.90;;;;;;5062179;28;20411;-66
2023/10/05 00:44:26;;;;;;;5.32;1.33;;;12.90;99.90;;;;;;5064242;28;20193;-67
2023/10/05 00:46:52;;;;;;;9.90;1.77;;;12.90;99.90;;;;;;5058637;28;20166;-67
2023/10/05 00:49:23;;;;;;;11.68;1.77;;;12.90;99.90;;;;;;5067889;28;20040;-66
2023/10/05 00:52:34;;;;;;;10.77;2.00;;;12.90;99.90;;;;;;5061559;28;20048;-67
2023/10/05 00:54:40;;;;;;;5.85;1.85;;;12.90;99.90;;;;;;5055539;28;20051;-67
2023/10/05 00:57:09;;;;;;;6.80;1.70;;;12.90;99.90;;;;;;5062765;28;20052;-66
2023/10/05 00:59:36;;;;;;;8.95;1.75;;;12.90;99.90;;;;;;5059057;28;20424;-67
2023/10/05 01:04:52;;;;;;;5.85;1.60;;;12.90;99.90;;;;;;5051809;28;20633;-67
2023/10/05 01:07:18;;;;;;;6.05;1.60;;;13.00;99.90;;;;;;5053502;28;20045;-66
2023/10/05 01:12:43;;;;;;;5.70;1.80;;;13.00;99.90;;;;;;5055558;28;20044;-67
2023/10/05 01:15:11;;;;;;;6.70;1.70;;;13.10;99.90;;;;;;5053413;28;20044;-66
2023/10/05 01:17:37;;;;;;;5.82;1.85;;;13.10;99.90;;;;;;5057587;28;20068;-67
2023/10/05 01:20:22;;;;;;;5.43;1.70;;;13.10;99.90;;;;;;5063733;28;20494;-66
2023/10/05 01:22:49;;;;;;;5.35;1.80;;;13.10;99.90;;;;;;5059652;28;20036;-66
2023/10/05 01:25:14;;;;;;;7.80;1.90;;;13.10;99.90;;;;;;5059786;28;20037;-66
2023/10/05 01:27:44;;;;;;;5.30;1.60;;;13.10;99.90;;;;;;5052693;28;20035;-66
2023/10/05 01:30:12;;;;;;;8.63;2.05;;;13.10;99.90;;;;;;5059409;28;20028;-66
2023/10/05 01:32:41;;;;;;;10.02;2.47;;;13.10;99.90;;;;;;5054555;28;20044;-66
2023/10/05 01:35:08;;;;;;;6.07;1.88;;;13.10;99.90;;;;;;5058899;28;20030;-67
2023/10/05 01:37:37;;;;;;;8.43;1.95;;;13.10;99.90;;;;;;5063352;28;20079;-66
2023/10/05 01:42:46;;;;;;;6.25;1.77;;;13.00;99.90;;;;;;5068999;28;20071;-66
2023/10/05 01:45:33;;;;;;;8.27;2.20;;;13.10;99.90;;;;;;5059501;28;20115;-67
2023/10/05 01:48:02;;;;;;;5.53;1.70;;;13.10;99.90;;;;;;5060582;28;20131;-66
2023/10/05 01:50:29;;;;;;;7.50;2.08;;;13.00;99.90;;;;;;5051904;28;20036;-66
2023/10/05 01:53:07;;;;;;;8.48;2.05;;;13.00;99.90;;;;;;5062684;28;20039;-65
2023/10/05 01:55:36;;;;;;;7.50;1.95;;;13.00;99.90;;;;;;5058362;28;20124;-66
2023/10/05 01:58:06;;;;;;;8.93;1.65;;;13.00;99.90;;;;;;5067719;28;20124;-66
2023/10/05 02:00:37;;;;;;;8.57;1.95;;;13.00;99.90;;;;;;5063510;28;20051;-66
2023/10/05 02:03:07;;;;;;;5.85;1.60;;;13.10;99.90;;;;;;5061312;28;20225;-66
2023/10/05 02:05:33;;;;;;;7.95;1.95;;;13.00;99.90;;;;;;5054545;28;20075;-66
2023/10/05 02:07:58;;;;;;;5.03;1.52;;;13.00;99.90;;;;;;5061026;28;20040;-66
2023/10/05 02:10:24;;;;;;;7.18;1.70;;;13.00;99.90;;;;;;5074555;28;20120;-66
2023/10/05 02:12:54;;;;;;;9.38;2.10;;;13.00;99.90;;;;;;5053352;28;20071;-66
2023/10/05 02:15:28;;;;;;;8.23;1.33;;;13.00;99.90;;;;;;5074242;28;20110;-67
2023/10/05 02:17:54;;;;;;;6.97;2.05;;;13.00;99.90;;;;;;5059862;28;20052;-66
2023/10/05 02:20:38;;;;;;;8.75;1.70;;;13.00;99.90;;;;;;5054427;28;20109;-66
2023/10/05 02:25:55;;;;;;;6.93;1.77;;;13.00;99.90;;;;;;5066569;28;20067;-66
2023/10/05 02:28:25;;;;;;;7.75;1.70;;;13.00;99.90;;;;;;5050034;28;20044;-67
2023/10/05 02:30:53;;;;;;;5.03;1.70;;;13.10;99.90;;;;;;5049675;28;20032;-66
2023/10/05 02:33:23;;;;;;;9.13;2.00;;;13.10;99.90;;;;;;5046884;28;20089;-66
2023/10/05 02:35:50;;;;;;;9.10;2.13;;;13.10;99.90;;;;;;5064814;28;20056;-66
2023/10/05 02:38:21;;;;;;;7.78;1.80;;;13.10;99.90;;;;;;5062514;28;20352;-66
2023/10/05 02:40:58;;;;;;;5.70;1.73;;;13.10;99.90;;;;;;5062138;28;20388;-66
2023/10/05 02:43:27;;;;;;;6.38;1.83;;;13.10;99.90;;;;;;5060320;28;20613;-66
2023/10/05 02:46:09;;;;;;;12.52;1.88;;;13.10;99.90;;;;;;5051770;28;20115;-67
2023/10/05 02:48:35;;;;;;;8.45;1.73;;;13.20;99.90;;;;;;5054982;28;20052;-66
2023/10/05 02:51:05;;;;;;;8.80;2.10;;;13.20;99.90;;;;;;5057287;28;20071;-67
2023/10/05 02:53:40;;;;;;;6.05;1.73;;;13.20;99.90;;;;;;5069897;28;20037;-66
2023/10/05 02:56:27;;;;;;;6.15;2.00;;;13.20;99.90;;;;;;5049007;28;20067;-66
2023/10/05 02:59:02;;;;;;;5.47;1.90;;;13.30;99.90;;;;;;5056036;28;20492;-66
2023/10/05 03:01:27;;;;;;;10.68;2.10;;;13.30;99.90;;;;;;5055808;28;20044;-67
2023/10/05 03:03:55;;;;;;;7.55;1.95;;;13.30;99.90;;;;;;5055891;28;20067;-67
2023/10/05 03:06:22;;;;;;;9.52;1.85;;;13.30;99.90;;;;;;5052239;28;20464;-66
2023/10/05 03:08:49;;;;;;;7.45;1.92;;;13.40;99.90;;;;;;5049534;28;20036;-66
2023/10/05 03:11:15;;;;;;;10.15;1.98;;;13.40;99.90;;;;;;5056437;28;20038;-66
2023/10/05 03:13:41;;;;;;;6.00;2.03;;;13.40;99.90;;;;;;5049004;28;20040;-67
2023/10/05 03:16:10;;;;;;;6.97;1.80;;;13.40;99.90;;;;;;5060904;28;20045;-66
2023/10/05 03:18:48;;;;;;;6.95;1.67;;;13.40;99.90;;;;;;5073850;28;20113;-66
2023/10/05 03:21:14;;;;;;;5.70;1.60;;;13.40;99.90;;;;;;5054555;28;20468;-67
2023/10/05 03:23:42;;;;;;;7.80;2.20;;;13.30;99.90;;;;;;5057221;28;20059;-66
2023/10/05 03:26:15;;;;;;;8.65;1.85;;;13.30;99.90;;;;;;5057620;28;20040;-66
2023/10/05 03:28:41;;;;;;;7.18;1.80;;;13.20;99.90;;;;;;5060384;28;20045;-66
2023/10/05 03:31:38;;;;;;;8.98;1.73;;;13.20;99.90;;;;;;5060179;28;20488;-66
2023/10/05 03:34:07;;;;;;;8.30;1.50;;;13.20;99.90;;;;;;5055893;28;20076;-66
2023/10/05 03:36:33;;;;;;;8.82;1.90;;;13.20;99.90;;;;;;5055557;28;20040;-66
2023/10/05 03:39:03;;;;;;;5.38;1.77;;;13.10;99.90;;;;;;5064585;28;20110;-67
2023/10/05 03:41:29;;;;;;;6.50;2.03;;;13.10;99.90;;;;;;5062156;28;20044;-66
2023/10/05 03:43:55;;;;;;;8.07;1.92;;;13.10;99.90;;;;;;5067688;28;20040;-66
2023/10/05 03:46:24;;;;;;;10.43;2.00;;;13.10;99.90;;;;;;5065488;28;20037;-67
2023/10/05 03:48:51;;;;;;;5.65;1.50;;;13.10;99.90;;;;;;5059453;28;20048;-66
2023/10/05 03:51:17;;;;;;;7.07;2.10;;;13.10;99.90;;;;;;5067558;28;20052;-66
2023/10/05 03:53:51;;;;;;;8.35;1.75;;;13.10;99.90;;;;;;5059044;28;20166;-66
2023/10/05 03:56:21;;;;;;;7.85;2.30;;;13.00;99.90;;;;;;5069753;28;20124;-66
2023/10/05 03:58:47;;;;;;;5.80;1.90;;;13.10;99.90;;;;;;5044600;28;20071;-66
2023/10/05 04:01:15;;;;;;;10.13;1.92;;;13.10;99.90;;;;;;5068907;28;20470;-67
2023/10/05 04:03:44;;;;;;;6.10;2.03;;;13.10;99.90;;;;;;5067887;28;20110;-66
2023/10/05 04:06:17;;;;;;;;;;;13.10;99.90;;;;;;5067051;28;20337;-66
2023/10/05 04:09:00;;;;;;;6.88;1.27;;;13.20;99.90;;;;;;5061658;28;19966;-67
2023/10/05 04:11:26;;;;;;;8.35;1.90;;;13.20;99.90;;;;;;5057412;28;20107;-66
2023/10/05 04:13:55;;;;;;;8.30;1.88;;;13.20;99.90;;;;;;5064293;28;20036;-67
2023/10/05 04:16:28;;;;;;;7.00;2.13;;;13.20;99.90;;;;;;5063110;28;20495;-66
2023/10/05 04:18:55;;;;;;;9.95;1.75;;;13.20;99.90;;;;;;5061300;28;20048;-66
2023/10/05 04:21:22;;;;;;;8.02;1.92;;;13.20;99.90;;;;;;5064554;28;20041;-66
2023/10/05 04:23:52;;;;;;;7.03;1.50;;;13.20;99.90;;;;;;5060747;28;20053;-66
2023/10/05 04:26:19;;;;;;;9.35;1.80;;;13.20;99.90;;;;;;5057601;28;20048;-67
2023/10/05 04:28:57;;;;;;;7.97;2.38;;;13.20;99.90;;;;;;5054514;28;20059;-67
2023/10/05 04:31:25;;;;;;;8.85;1.70;;;13.30;99.90;;;;;;5062634;28;20032;-66
2023/10/05 04:33:55;;;;;;;7.30;2.10;;;13.30;99.90;;;;;;5064266;28;20047;-67
2023/10/05 04:36:24;;;;;;;7.25;2.00;;;13.30;99.90;;;;;;5052012;28;20131;-66
2023/10/05 04:38:53;;;;;;;12.13;2.58;;;13.30;99.90;;;;;;5051707;28;20050;-67
2023/10/05 04:41:28;;;;;;;6.65;1.85;;;13.30;99.90;;;;;;5059324;28;20047;-66
2023/10/05 04:43:57;;;;;;;13.00;1.63;;;13.40;99.90;;;;;;5055209;28;20485;-67
2023/10/05 04:46:23;;;;;;;6.03;1.73;;;13.40;99.90;;;;;;5070658;28;20082;-66
2023/10/05 04:48:55;;;;;;;7.10;1.73;;;13.40;99.90;;;;;;5054951;28;20041;-66
2023/10/05 04:51:23;;;;;;;9.88;1.92;;;13.40;99.90;;;;;;5052346;28;20518;-67
2023/10/05 04:53:53;;;;;;;8.23;1.90;;;13.40;99.90;;;;;;5054162;28;20052;-67
2023/10/05 04:56:35;;;;;;;7.82;1.85;;;13.40;99.90;;;;;;5054770;28;20092;-67
2023/10/05 04:59:23;;;;;;;6.82;2.00;;;13.40;99.90;;;;;;5053531;28;20530;-66
2023/10/05 05:05:07;;;;;;;6.22;1.77;;;13.40;99.90;;;;;;5058544;28;20048;-66
2023/10/05 05:07:13;;;;;;;8.48;1.77;;;13.40;99.90;;;;;;5054426;28;20044;-66
2023/10/05 05:09:42;;;;;;;6.72;1.73;;;13.40;99.90;;;;;;5052596;28;20400;-67
2023/10/05 05:12:16;;;;;;;8.48;1.73;;;13.40;99.90;;;;;;5068451;28;20341;-66
2023/10/05 05:14:42;;;;;;;10.63;1.98;;;13.50;99.90;;;;;;5057550;28;20515;-67
2023/10/05 05:17:13;;;;;;;9.93;2.08;;;13.50;99.90;;;;;;5060535;28;20391;-67
2023/10/05 05:19:39;;;;;;;;;;;13.50;99.90;;;;;;5065595;28;20094;-67
2023/10/05 05:22:06;;;;;;;10.85;3.50;;;13.50;99.90;;;;;;5057837;28;19935;-67
2023/10/05 05:24:38;;;;;;;6.10;1.95;;;13.60;99.90;;;;;;5058581;28;20499;-67
2023/10/05 05:27:11;;;;;;;10.05;1.88;;;13.50;99.90;;;;;;5066625;28;20142;-67
2023/10/05 05:29:37;;;;;;;7.32;1.92;;;13.50;99.90;;;;;;5060058;28;20054;-66
2023/10/05 05:32:19;;;;;;;6.95;1.83;;;13.50;99.90;;;;;;5062979;28;20214;-67
2023/10/05 05:34:44;;;;;;;11.38;2.75;;;13.40;99.90;;;;;;5048161;28;20132;-67
2023/10/05 05:37:13;;;;;;;6.70;2.20;;;13.40;99.90;;;;;;5057940;28;20041;-67
2023/10/05 05:39:42;;;;;;;8.75;2.05;;;13.30;99.90;;;;;;5054876;28;20052;-68
2023/10/05 05:42:14;;;;;;;11.43;2.38;;;13.20;99.90;;;;;;5059932;28;20140;-66
2023/10/05 05:44:40;;;;;;;9.45;2.05;;;13.20;99.90;;;;;;5057675;28;20053;-67
2023/10/05 05:47:10;;;;;;;11.20;2.30;;;13.10;99.90;;;;;;5044378;28;20207;-66
2023/10/05 05:49:38;;;;;;;9.80;2.17;;;13.20;99.90;;;;;;5074564;28;20036;-67
2023/10/05 05:52:05;;;;;;;10.45;2.17;;;13.10;99.90;;;;;;5055779;28;20151;-67
2023/10/05 05:54:33;;;;;;;10.30;1.90;;;13.10;99.90;;;;;;5056004;28;20032;-66
2023/10/05 05:56:59;;;;;;;7.38;2.53;;;13.10;99.90;;;;;;5069255;28;20124;-67
2023/10/05 05:59:24;;;;;;;8.23;2.33;;;13.10;99.90;;;;;;5055530;28;20050;-67
2023/10/05 06:01:50;;;;;;;11.30;2.22;;;13.20;99.90;;;;;;5055289;28;20040;-67
2023/10/05 06:04:19;;;;;;;9.10;2.10;;;13.20;99.90;;;;;;5062684;28;20052;-67
2023/10/05 06:06:48;;;;;;;11.07;2.00;;;13.30;99.90;;;;;;5062886;28;20145;-67
2023/10/05 06:09:19;;;;;;;10.43;2.22;;;13.30;99.90;;;;;;5063440;28;20044;-66
2023/10/05 06:11:48;;;;;;;8.98;2.00;;;13.30;99.90;;;;;;5064333;28;20178;-66
2023/10/05 06:14:14;;;;;;;11.68;1.80;;;13.40;99.90;;;;;;5072194;28;20036;-67
2023/10/05 06:16:39;;;;;;;7.43;1.80;;;13.40;99.90;;;;;;5060882;28;20463;-67
2023/10/05 06:19:05;;;;;;;7.32;1.77;;;13.40;99.90;;;;;;5058021;28;20033;-67
2023/10/05 06:21:31;;;;;;;7.65;2.05;;;13.50;99.90;;;;;;5056638;28;20078;-68
2023/10/05 06:23:57;;;;;;;8.20;2.40;;;13.50;99.90;;;;;;5058813;28;20079;-67
2023/10/05 06:26:23;;;;;;;9.30;2.20;;;13.60;99.90;;;;;;5057076;28;20083;-67
2023/10/05 06:28:49;;;;;;;10.05;2.55;;;13.70;99.90;;;;;;5062702;28;20052;-67
2023/10/05 06:31:14;;;;;;;10.70;2.63;;;13.70;99.90;;;;;;5064418;28;20136;-67
2023/10/05 06:33:42;;;;;;;10.75;2.28;;;13.70;99.90;;;;;;5062624;28;20496;-67
2023/10/05 06:36:08;;;;;;;11.88;2.40;;;13.80;99.90;;;;;;5062478;28;20119;-66
2023/10/05 06:38:35;;;;;;;8.75;2.35;;;13.90;99.90;;;;;;5061980;28;20143;-66
2023/10/05 06:41:03;;;;;;;9.95;2.25;;;13.90;99.90;;;;;;5061853;28;20495;-67
2023/10/05 06:43:34;;;;;;;9.35;2.05;;;14.00;99.90;;;;;;5059120;28;20060;-67
2023/10/05 06:46:09;;;;;;;8.88;2.03;;;14.00;99.90;;;;;;5035119;28;20431;-67
2023/10/05 06:48:36;;;;;;;13.15;2.95;;;14.00;99.90;;;;;;5065450;28;20123;-67
2023/10/05 06:51:01;;;;;;;7.15;2.15;;;14.10;99.90;;;;;;5059409;28;20045;-66
2023/10/05 06:53:27;;;;;;;6.32;2.45;;;14.10;99.90;;;;;;5058371;28;20047;-67
2023/10/05 06:55:54;;;;;;;9.68;2.30;;;14.20;99.90;;;;;;5062960;28;20388;-66
2023/10/05 06:58:19;;;;;;;13.05;2.30;;;14.20;99.90;;;;;;5061693;28;20329;-67
2023/10/05 07:00:45;;;;;;;10.25;2.10;;;14.20;99.90;;;;;;5071802;28;20036;-67
2023/10/05 07:03:11;;;;;;;15.93;2.50;;;14.10;99.90;;;;;;5059381;28;20626;-66
2023/10/05 07:05:36;;;;;;;9.70;2.72;;;14.10;99.90;;;;;;5078417;28;20130;-67
2023/10/05 07:08:03;;;;;;;9.63;2.03;;;14.10;99.90;;;;;;5063705;28;20360;-67
2023/10/05 07:10:28;;;;;;;7.25;2.50;;;14.10;99.90;;;;;;5063615;28;20041;-66
2023/10/05 07:12:54;;;;;;;9.85;1.90;;;14.10;99.90;;;;;;5073385;28;20043;-66
2023/10/05 07:15:23;;;;;;;9.63;2.40;;;14.10;99.90;;;;;;5048412;28;20040;-67
2023/10/05 07:17:49;;;;;;;8.88;2.20;;;14.10;99.90;;;;;;5058408;28;20539;-67
2023/10/05 07:20:16;;;;;;;15.05;3.20;;;14.10;99.90;;;;;;5061951;28;20044;-67
2023/10/05 07:22:44;;;;;;;9.40;2.22;;;14.30;99.90;;;;;;5057920;28;20051;-67
2023/10/05 07:25:19;;;;;;;8.93;2.10;;;14.50;99.90;;;;;;5062818;28;20059;-67
2023/10/05 07:27:45;;;;;;;9.20;2.28;;;14.70;99.90;;;;;;5073393;28;20045;-67
2023/10/05 07:30:12;;;;;;;10.25;2.35;;;14.80;99.90;;;;;;5061221;28;20974;-67
2023/10/05 07:32:39;;;;;;;11.90;2.30;;;14.90;99.90;;;;;;5072052;28;20489;-67
2023/10/05 07:35:05;;;;;;;10.13;2.17;;;14.80;99.90;;;;;;5060235;28;20078;-67
2023/10/05 07:37:31;;;;;;;8.80;2.20;;;14.80;99.90;;;;;;5060059;28;20045;-68
2023/10/05 07:39:58;;;;;;;8.23;2.10;;;14.90;99.90;;;;;;5061880;28;20071;-67
2023/10/05 07:42:24;;;;;;;9.65;2.75;;;14.90;99.90;;;;;;5057452;28;20154;-67
2023/10/05 07:44:50;;;;;;;12.15;2.30;;;14.90;99.90;;;;;;5068879;28;20106;-67
2023/10/05 07:47:16;;;;;;;8.55;2.00;;;15.00;99.90;;;;;;5060488;28;20588;-67
2023/10/05 07:49:42;;;;;;;13.82;2.88;;;15.00;99.90;;;;;;5051455;28;20037;-67
2023/10/05 07:52:11;;;;;;;10.65;2.35;;;15.10;99.90;;;;;;5058933;28;20093;-67
2023/10/05 07:54:40;;;;;;;10.93;2.35;;;15.10;99.90;;;;;;5074112;28;20492;-67
2023/10/05 07:57:10;;;;;;;11.57;2.30;;;15.00;99.90;;;;;;5060465;28;20088;-67
2023/10/05 07:59:42;;;;;;;7.90;2.38;;;15.10;99.90;;;;;;5045261;28;20028;-67
2023/10/05 08:02:11;;;;;;;11.93;2.15;;;15.10;99.90;;;;;;5065426;28;20063;-67
2023/10/05 08:04:38;;;;;;;11.70;2.63;;;15.20;99.90;;;;;;5067715;28;20070;-67
2023/10/05 08:07:04;;;;;;;9.18;3.08;;;15.30;99.90;;;;;;5065859;28;20147;-67
2023/10/05 08:09:30;;;;;;;10.40;2.33;;;15.40;99.90;;;;;;5066599;28;20234;-68
2023/10/05 08:11:57;;;;;;;6.90;2.47;;;15.50;99.90;;;;;;5068203;28;20688;-67
2023/10/05 08:14:24;;;;;;;10.00;2.97;;;15.50;99.90;;;;;;5092190;28;20426;-67
2023/10/05 08:16:55;;;;;;;10.43;2.40;;;15.50;99.90;;;;;;5067515;28;20048;-68
2023/10/05 08:19:24;;;;;;;9.35;2.67;;;15.50;99.90;;;;;;5068003;28;20422;-67
2023/10/05 08:21:52;;;;;;;9.68;2.63;;;15.50;99.90;;;;;;5060194;28;20721;-67
2023/10/05 08:24:17;;;;;;;11.25;2.70;;;15.50;99.90;;;;;;5061621;28;20043;-67
2023/10/05 08:26:43;;;;;;;12.00;3.00;;;15.50;99.90;;;;;;5061702;28;20093;-67
2023/10/05 08:29:09;;;;;;;10.38;2.28;;;15.60;99.90;;;;;;5062835;28;20075;-67
2023/10/05 08:31:36;;;;;;;13.48;2.90;;;15.60;99.90;;;;;;5062105;28;20622;-68
2023/10/05 08:34:03;;;;;;;9.13;2.45;;;15.70;99.90;;;;;;5065142;28;20045;-67
2023/10/05 08:36:30;;;;;;;8.20;2.30;;;15.70;99.90;;;;;;5058951;28;20045;-67
2023/10/05 08:38:56;;;;;;;9.73;2.20;;;15.70;99.90;;;;;;5057762;28;20099;-67
2023/10/05 08:41:27;;;;;;;10.18;2.92;;;15.50;99.90;;;;;;5073872;28;20037;-68
2023/10/05 08:43:54;;;;;;;8.23;2.50;;;15.50;99.90;;;;;;5048662;28;20091;-67
2023/10/05 08:46:21;;;;;;;15.65;3.40;;;15.30;99.90;;;;;;5054538;28;20384;-67
2023/10/05 08:48:46;;;;;;;13.18;2.63;;;15.30;99.90;;;;;;5066818;28;20098;-67
2023/10/05 08:51:13;;;;;;;14.25;3.22;;;15.20;99.90;;;;;;5073315;28;20024;-66
2023/10/05 08:53:59;;;;;;;7.85;2.58;;;15.10;99.90;;;;;;5074979;28;20431;-68
2023/10/05 08:56:25;;;;;;;15.82;3.17;;;15.00;99.90;;;;;;5079084;28;20044;-68
2023/10/05 08:58:52;;;;;;;16.70;2.80;;;15.00;99.90;;;;;;5067891;28;20506;-68
2023/10/05 09:01:29;;;;;;;12.40;2.58;;;14.90;99.90;;;;;;5063342;28;20169;-68
2023/10/05 09:04:23;;;;;;;10.65;2.42;;;14.80;99.90;;;;;;5062454;28;20350;-67
2023/10/05 09:06:57;;;;;;;9.18;2.72;;;14.70;99.90;;;;;;5060314;28;20080;-66
2023/10/05 09:09:37;;;;;;;12.20;3.15;;;14.50;99.90;;;;;;5062581;28;20029;-66
2023/10/05 09:12:32;;;;;;;9.45;2.63;;;14.50;99.90;;;;;;5081223;28;20407;-66
2023/10/05 09:17:56;;;;;;;13.98;2.85;;;14.40;99.90;;;;;;5064892;28;20132;-67
2023/10/05 09:20:23;;;;;;;10.00;2.50;;;14.40;99.90;;;;;;5066810;28;20048;-66
2023/10/05 09:22:50;;;;;;;10.15;2.70;;;14.50;99.90;;;;;;5065309;28;20519;-66
2023/10/05 09:25:17;;;;;;;9.90;2.85;;;14.50;99.90;;;;;;5065383;28;20068;-67
2023/10/05 09:27:50;;;;;;;7.20;2.60;;;14.50;99.90;;;;;;5063255;28;20481;-66
2023/10/05 09:30:20;;;;;;;9.30;3.03;;;14.50;99.90;;;;;;5046887;28;20368;-67
2023/10/05 09:32:46;;;;;;;10.57;3.17;;;14.50;99.90;;;;;;5067992;28;20048;-67
2023/10/05 09:35:27;;;;;;;10.93;3.33;;;14.50;99.90;;;;;;5073861;28;20086;-67
2023/10/05 09:38:01;;;;;;;13.35;3.08;;;14.50;99.90;;;;;;5050982;28;20040;-67
2023/10/05 09:40:28;;;;;;;17.52;3.40;;;14.70;99.90;;;;;;5058198;28;20851;-68
2023/10/05 09:42:55;;;;;;;18.23;3.65;;;14.80;99.90;;;;;;5059352;28;20041;-67
2023/10/05 09:45:23;;;;;;;8.98;3.10;;;14.90;99.90;;;;;;5057912;28;20037;-67
2023/10/05 09:47:53;;;;;;;11.35;3.00;;;15.00;99.90;;;;;;5059961;28;20054;-67
2023/10/05 09:50:21;;;;;;;9.57;2.85;;;15.20;99.90;;;;;;5062464;28;20744;-67
2023/10/05 09:52:48;;;;;;;10.45;2.90;;;15.30;99.90;;;;;;5046450;28;20098;-67
2023/10/05 09:55:18;;;;;;;9.90;2.80;;;15.40;99.90;;;;;;5049809;28;20074;-67
2023/10/05 09:57:51;;;;;;;12.32;2.90;;;15.30;99.90;;;;;;5065104;28;20047;-66
2023/10/05 10:03:03;;;;;;;5.57;2.70;;;15.10;99.90;;;;;;5059168;28;20052;-66
2023/10/05 10:05:33;;;;;;;11.57;3.03;;;14.90;99.90;;;;;;5059925;28;20040;-67
2023/10/05 10:08:23;;;;;;;9.80;2.60;;;14.80;99.90;;;;;;5062948;28;20044;-67
2023/10/05 10:11:00;;;;;;;9.77;2.70;;;14.70;99.90;;;;;;5060780;28;20123;-69
2023/10/05 10:13:28;;;;;;;10.48;2.65;;;14.60;99.90;;;;;;5061498;28;20079;-69
2023/10/05 10:15:56;;;;;;;9.15;2.90;;;14.60;99.90;;;;;;5043552;28;20068;-70
2023/10/05 10:18:34;;;;;;;8.20;3.13;;;14.50;99.90;;;;;;5056025;28;20048;-70
2023/10/05 10:21:08;;;;;;;11.50;3.47;;;14.50;99.90;;;;;;5070082;28;20040;-72
2023/10/05 10:23:36;;;;;;;9.35;2.78;;;14.50;99.90;;;;;;5064733;28;20534;-72
2023/10/05 10:26:06;;;;;;;9.77;2.92;;;14.50;99.90;;;;;;5062987;28;20453;-72
2023/10/05 10:31:29;;;;;;;5.72;2.05;;;14.50;99.90;;;;;;5064833;28;20376;-72
2023/10/05 10:33:56;;;;;;;10.23;2.20;;;14.50;99.90;;;;;;5048155;28;20044;-72
2023/10/05 10:36:46;;;;;;;8.77;2.72;;;14.60;99.90;;;;;;5068456;28;20032;-75
2023/10/05 10:39:23;;;;;;;7.30;2.33;;;14.60;99.90;;;;;;5064008;28;20049;-77
2023/10/05 10:42:05;;;;;;;10.82;2.72;;;14.70;99.90;;;;;;5068439;28;20140;-76
2023/10/05 10:47:39;;;;;;;7.95;2.47;;;14.80;99.90;;;;;;5064807;28;20045;-77
2023/10/05 10:50:16;;;;;;;8.65;2.47;;;14.90;99.90;;;;;;5081441;28;20519;-74
2023/10/05 10:52:45;;;;;;;7.22;2.60;;;15.20;99.90;;;;;;5067729;28;20419;-77
2023/10/05 10:55:14;;;;;;;10.40;2.67;;;15.50;99.90;;;;;;5071711;28;20032;-75
2023/10/05 10:57:53;;;;;;;8.43;3.15;;;15.70;99.90;;;;;;5071806;28;20051;-76
2023/10/05 11:03:11;;;;;;;13.07;3.88;;;15.70;99.90;;;;;;5070580;28;20446;-77
2023/10/05 11:05:41;;;;;;;16.17;4.10;;;15.90;99.90;;;;;;5065682;28;20044;-73
2023/10/05 11:08:15;;;;;;;8.30;3.33;;;15.80;99.90;;;;;;5060861;28;20043;-76
2023/10/05 11:10:41;;;;;;;11.65;4.07;;;15.80;99.90;;;;;;5074948;28;20078;-77
2023/10/05 11:13:19;;;;;;;13.40;4.07;;;15.70;99.90;;;;;;5070344;28;20119;-76
2023/10/05 11:15:59;;;;;;;11.15;3.63;;;15.50;99.90;;;;;;5059444;28;20602;-73
2023/10/05 11:18:26;;;;;;;7.40;3.38;;;15.70;99.90;;;;;;5063404;28;20956;-75
2023/10/05 11:20:52;;;;;;;11.93;3.72;;;15.70;99.90;;;;;;5066258;28;20138;-75
2023/10/05 11:23:26;;;;;;;13.65;3.42;;;15.70;99.90;;;;;;5068052;28;20548;-72
2023/10/05 11:26:17;;;;;;;8.98;3.20;;;15.90;99.90;;;;;;5053606;28;20072;-74
2023/10/05 11:28:39;;;;;;;11.82;4.22;;;16.10;99.90;;;;;;5063680;28;20052;-75
2023/10/05 11:31:04;;;;;;;12.32;3.70;;;16.00;99.90;;;;;;5074084;28;20102;-74
2023/10/05 11:33:34;;;;;;;11.30;3.53;;;16.10;99.90;;;;;;5047999;28;20072;-73
2023/10/05 11:36:08;;;;;;;8.50;3.33;;;15.80;99.90;;;;;;5058428;28;20567;-74
2023/10/05 11:38:35;;;;;;;9.73;2.97;;;15.80;99.90;;;;;;5063354;28;20078;-74
2023/10/05 11:41:01;;;;;;;9.43;3.88;;;15.80;99.90;;;;;;5060313;28;20048;-74
2023/10/05 11:43:29;;;;;;;10.98;3.58;;;15.90;99.90;;;;;;5047677;28;20408;-73
2023/10/05 11:46:12;;;;;;;10.90;3.13;;;16.10;99.90;;;;;;5061920;28;20393;-72
2023/10/05 11:48:42;;;;;;;9.95;3.30;;;16.30;99.90;;;;;;5067644;28;20070;-72
2023/10/05 11:51:12;;;;;;;11.10;3.88;;;16.30;99.90;;;;;;5064504;28;20067;-73
2023/10/05 11:53:39;;;;;;;9.27;3.10;;;16.30;99.90;;;;;;5055753;28;20054;-73
2023/10/05 11:56:06;;;;;;;8.82;2.97;;;16.10;99.90;;;;;;5075976;28;20044;-72
2023/10/05 11:58:36;;;;;;;10.85;2.83;;;16.20;99.90;;;;;;5040239;28;20122;-72
2023/10/05 12:01:03;;;;;;;12.52;3.05;;;16.20;99.90;;;;;;5060613;28;20045;-72
2023/10/05 12:03:30;;;;;;;9.13;2.42;;;16.20;99.90;;;;;;5065650;28;20064;-72
2023/10/05 12:06:03;;;;;;;12.10;2.95;;;16.10;99.90;;;;;;5075013;28;20521;-71
2023/10/05 12:08:30;;;;;;;11.15;2.80;;;16.00;99.90;;;;;;5062735;28;20056;-72
2023/10/05 12:10:59;;;;;;;16.98;2.95;;;15.90;99.90;;;;;;5064115;28;20047;-69
2023/10/05 12:13:29;;;;;;;9.77;2.97;;;15.60;99.90;;;;;;5069824;28;20117;-69
2023/10/05 12:15:55;;;;;;;9.83;2.20;;;15.30;99.90;;;;;;5055475;28;20426;-68
2023/10/05 12:18:22;;;;;;;5.13;2.20;;;14.90;99.90;;;;;;5032810;28;20310;-67
2023/10/05 12:20:50;;;;;;;8.10;2.30;;;15.10;99.90;;;;;;5045935;28;20361;-70
2023/10/05 12:23:17;;;;;;;9.50;2.20;;;15.10;99.90;;;;;;5042550;28;20048;-73
2023/10/05 12:25:45;;;;;;;4.47;2.20;;;14.90;99.90;;;;;;5055735;28;20113;-73
2023/10/05 12:28:11;;;;;;;6.43;2.10;;;15.00;99.90;;;;;;5059992;28;20363;-75
2023/10/05 12:30:39;;;;;;;7.82;2.30;;;14.80;99.90;;;;;;5062725;28;20056;-77
2023/10/05 12:33:08;;;;;;;6.35;2.30;;;15.30;99.90;;;;;;5056919;28;20674;-72
2023/10/05 12:35:36;;;;;;;9.80;2.60;;;15.70;99.90;;;;;;5060390;28;20052;-74
2023/10/05 12:38:06;;;;;;;7.85;2.78;;;15.70;99.90;;;;;;5060251;28;20040;-76
2023/10/05 12:40:35;;;;;;;;;;;15.10;99.90;;;;;;5062679;28;20411;-74
2023/10/05 12:43:01;;;;;;;6.47;2.78;;;16.00;99.90;;;;;;5060680;28;20371;-74
2023/10/05 12:45:28;;;;;;;13.23;3.28;;;15.50;99.90;;;;;;5066135;28;20040;-73
2023/10/05 12:47:57;;;;;;;15.43;3.45;;;15.50;99.90;;;;;;5077882;28;20048;-72
2023/10/05 12:50:27;;;;;;;11.52;3.30;;;15.90;99.90;;;;;;5063276;28;20115;-78
2023/10/05 12:52:53;;;;;;;9.43;3.00;;;15.40;99.90;;;;;;5069588;28;20040;-77
2023/10/05 12:55:23;;;;;;;14.15;3.05;;;15.60;99.90;;;;;;5060951;28;20117;-73
2023/10/05 12:57:53;;;;;;;13.23;3.33;;;15.50;99.90;;;;;;5069111;28;20048;-73
2023/10/05 13:00:21;;;;;;;10.00;3.00;;;15.30;99.90;;;;;;5073631;28;20295;-69
2023/10/05 13:02:53;;;;;;;11.48;3.20;;;15.70;99.90;;;;;;5071302;28;20076;-68
2023/10/05 13:05:28;;;;;;;13.23;3.70;;;15.10;99.90;;;;;;5048970;28;20036;-69
2023/10/05 13:07:55;;;;;;;13.32;3.50;;;15.10;99.90;;;;;;5058967;28;20028;-71
2023/10/05 13:10:26;;;;;;;10.63;3.70;;;15.60;99.90;;;;;;5056312;28;20141;-69
2023/10/05 13:12:53;;;;;;;9.70;3.38;;;15.40;99.90;;;;;;5068447;28;20122;-73
2023/10/05 13:15:31;;;;;;;13.95;3.50;;;15.60;99.90;;;;;;5061726;28;20046;-72
2023/10/05 13:17:57;;;;;;;10.25;3.05;;;15.90;99.90;;;;;;5063172;28;20119;-74
2023/10/05 13:20:24;;;;;;;7.93;3.45;;;15.70;99.90;;;;;;5060008;28;20052;-72
2023/10/05 13:22:56;;;;;;;15.13;3.42;;;15.80;99.90;;;;;;5061873;28;20380;-75
2023/10/05 13:25:25;;;;;;;13.13;3.80;;;16.20;99.90;;;;;;5060439;28;20480;-71
2023/10/05 13:27:52;;;;;;;10.18;3.50;;;16.10;99.90;;;;;;5050983;28;20045;-73
2023/10/05 13:30:22;;;;;;;16.17;4.32;;;16.00;99.90;;;;;;5064112;28;20040;-73
2023/10/05 13:32:49;;;;;;;;;;;15.50;99.90;;;;;;5067290;28;20119;-75